sensor_id;sensor_type;location;lat;lon;timestamp;P1;durP1;ratioP1;P2;durP2;ratioP2
56114;SDS011;41988;53.020;6.576;2023-08-06T00:00:34;36.60;;;16.75;;
56114;SDS011;41988;53.020;6.576;2023-08-06T00:03:19;25.08;;;16.60;;
56114;SDS011;41988;53.020;6.576;2023-08-06T00:06:06;26.98;;;16.77;;
56114;SDS011;41988;53.020;6.576;2023-08-06T00:08:51;25.08;;;17.00;;
56114;SDS011;41988;53.020;6.576;2023-08-06T00:11:36;23.65;;;17.10;;
56114;SDS011;41988;53.020;6.576;2023-08-06T00:14:20;28.02;;;17.40;;
56114;SDS011;41988;53.020;6.576;2023-08-06T00:17:05;25.05;;;16.58;;
56114;SDS011;41988;53.020;6.576;2023-08-06T00:19:49;26.95;;;17.92;;
56114;SDS011;41988;53.020;6.576;2023-08-06T00:22:34;25.50;;;17.00;;
56114;SDS011;41988;53.020;6.576;2023-08-06T00:25:19;27.90;;;18.15;;
56114;SDS011;41988;53.020;6.576;2023-08-06T00:28:04;29.20;;;18.02;;
56114;SDS011;41988;53.020;6.576;2023-08-06T00:30:52;27.15;;;18.48;;
56114;SDS011;41988;53.020;6.576;2023-08-06T00:33:37;30.40;;;17.88;;
56114;SDS011;41988;53.020;6.576;2023-08-06T00:36:22;28.85;;;18.02;;
56114;SDS011;41988;53.020;6.576;2023-08-06T00:39:07;25.48;;;17.67;;
56114;SDS011;41988;53.020;6.576;2023-08-06T00:41:51;23.70;;;17.73;;
56114;SDS011;41988;53.020;6.576;2023-08-06T00:44:36;31.60;;;18.45;;
56114;SDS011;41988;53.020;6.576;2023-08-06T00:47:21;27.45;;;17.95;;
56114;SDS011;41988;53.020;6.576;2023-08-06T00:50:06;28.73;;;17.10;;
56114;SDS011;41988;53.020;6.576;2023-08-06T00:52:51;28.63;;;17.58;;
56114;SDS011;41988;53.020;6.576;2023-08-06T00:55:36;31.27;;;17.45;;
56114;SDS011;41988;53.020;6.576;2023-08-06T00:58:21;28.73;;;17.30;;
56114;SDS011;41988;53.020;6.576;2023-08-06T01:01:06;28.77;;;18.10;;
56114;SDS011;41988;53.020;6.576;2023-08-06T01:03:50;26.70;;;17.33;;
56114;SDS011;41988;53.020;6.576;2023-08-06T01:06:48;29.55;;;16.85;;
56114;SDS011;41988;53.020;6.576;2023-08-06T01:15:19;25.45;;;18.40;;
56114;SDS011;41988;53.020;6.576;2023-08-06T01:18:07;24.83;;;17.00;;
56114;SDS011;41988;53.020;6.576;2023-08-06T01:20:52;27.20;;;16.88;;
56114;SDS011;41988;53.020;6.576;2023-08-06T01:23:36;29.63;;;17.35;;
56114;SDS011;41988;53.020;6.576;2023-08-06T01:26:24;27.15;;;16.65;;
56114;SDS011;41988;53.020;6.576;2023-08-06T01:32:01;24.27;;;16.30;;
56114;SDS011;41988;53.020;6.576;2023-08-06T01:34:46;27.98;;;16.80;;
56114;SDS011;41988;53.020;6.576;2023-08-06T01:37:31;24.40;;;16.35;;
56114;SDS011;41988;53.020;6.576;2023-08-06T01:40:17;23.85;;;16.63;;
56114;SDS011;41988;53.020;6.576;2023-08-06T01:43:01;24.27;;;16.35;;
56114;SDS011;41988;53.020;6.576;2023-08-06T01:45:46;23.80;;;16.45;;
56114;SDS011;41988;53.020;6.576;2023-08-06T01:48:30;33.33;;;17.77;;
56114;SDS011;41988;53.020;6.576;2023-08-06T01:51:15;28.77;;;16.48;;
56114;SDS011;41988;53.020;6.576;2023-08-06T01:54:00;29.52;;;17.33;;
56114;SDS011;41988;53.020;6.576;2023-08-06T01:56:44;29.20;;;17.52;;
56114;SDS011;41988;53.020;6.576;2023-08-06T01:59:29;31.92;;;17.63;;
56114;SDS011;41988;53.020;6.576;2023-08-06T02:02:13;24.67;;;17.25;;
56114;SDS011;41988;53.020;6.576;2023-08-06T02:04:58;26.35;;;17.35;;
56114;SDS011;41988;53.020;6.576;2023-08-06T02:07:42;27.45;;;17.20;;
56114;SDS011;41988;53.020;6.576;2023-08-06T02:10:27;30.27;;;17.00;;
56114;SDS011;41988;53.020;6.576;2023-08-06T02:13:11;31.77;;;18.10;;
56114;SDS011;41988;53.020;6.576;2023-08-06T02:15:56;27.58;;;16.67;;
56114;SDS011;41988;53.020;6.576;2023-08-06T02:18:40;26.90;;;17.58;;
56114;SDS011;41988;53.020;6.576;2023-08-06T02:21:25;30.23;;;18.45;;
56114;SDS011;41988;53.020;6.576;2023-08-06T02:24:10;26.02;;;17.05;;
56114;SDS011;41988;53.020;6.576;2023-08-06T02:26:54;30.65;;;17.05;;
56114;SDS011;41988;53.020;6.576;2023-08-06T02:29:39;29.63;;;17.45;;
56114;SDS011;41988;53.020;6.576;2023-08-06T02:32:25;24.60;;;16.35;;
56114;SDS011;41988;53.020;6.576;2023-08-06T02:35:10;24.23;;;16.10;;
56114;SDS011;41988;53.020;6.576;2023-08-06T02:37:54;26.17;;;16.30;;
56114;SDS011;41988;53.020;6.576;2023-08-06T02:40:45;25.58;;;16.80;;
56114;SDS011;41988;53.020;6.576;2023-08-06T02:43:30;24.13;;;16.25;;
56114;SDS011;41988;53.020;6.576;2023-08-06T02:46:15;23.80;;;17.02;;
56114;SDS011;41988;53.020;6.576;2023-08-06T02:48:59;28.48;;;17.15;;
56114;SDS011;41988;53.020;6.576;2023-08-06T02:51:47;25.35;;;15.63;;
56114;SDS011;41988;53.020;6.576;2023-08-06T02:54:31;23.42;;;16.10;;
56114;SDS011;41988;53.020;6.576;2023-08-06T02:57:16;25.77;;;16.70;;
56114;SDS011;41988;53.020;6.576;2023-08-06T03:00:00;25.98;;;17.33;;
56114;SDS011;41988;53.020;6.576;2023-08-06T03:02:45;22.67;;;16.65;;
56114;SDS011;41988;53.020;6.576;2023-08-06T03:05:30;26.33;;;16.83;;
56114;SDS011;41988;53.020;6.576;2023-08-06T03:08:14;29.42;;;16.17;;
56114;SDS011;41988;53.020;6.576;2023-08-06T03:10:59;22.50;;;16.85;;
56114;SDS011;41988;53.020;6.576;2023-08-06T03:13:43;25.50;;;16.13;;
56114;SDS011;41988;53.020;6.576;2023-08-06T03:16:28;23.60;;;15.77;;
56114;SDS011;41988;53.020;6.576;2023-08-06T03:19:14;24.42;;;16.50;;
56114;SDS011;41988;53.020;6.576;2023-08-06T03:21:58;25.40;;;15.95;;
56114;SDS011;41988;53.020;6.576;2023-08-06T03:24:43;22.30;;;14.63;;
56114;SDS011;41988;53.020;6.576;2023-08-06T03:27:27;24.73;;;15.30;;
56114;SDS011;41988;53.020;6.576;2023-08-06T03:30:12;21.33;;;14.88;;
56114;SDS011;41988;53.020;6.576;2023-08-06T03:32:56;20.85;;;15.52;;
56114;SDS011;41988;53.020;6.576;2023-08-06T03:35:41;23.02;;;14.60;;
56114;SDS011;41988;53.020;6.576;2023-08-06T03:38:25;23.52;;;14.82;;
56114;SDS011;41988;53.020;6.576;2023-08-06T03:41:11;33.80;;;15.63;;
56114;SDS011;41988;53.020;6.576;2023-08-06T03:43:55;23.58;;;15.45;;
56114;SDS011;41988;53.020;6.576;2023-08-06T03:46:40;20.67;;;14.15;;
56114;SDS011;41988;53.020;6.576;2023-08-06T03:49:25;20.15;;;13.73;;
56114;SDS011;41988;53.020;6.576;2023-08-06T03:52:09;20.45;;;12.27;;
56114;SDS011;41988;53.020;6.576;2023-08-06T03:54:54;21.95;;;14.63;;
56114;SDS011;41988;53.020;6.576;2023-08-06T03:57:38;20.30;;;12.70;;
56114;SDS011;41988;53.020;6.576;2023-08-06T04:00:23;22.35;;;13.73;;
56114;SDS011;41988;53.020;6.576;2023-08-06T04:03:07;22.13;;;14.30;;
56114;SDS011;41988;53.020;6.576;2023-08-06T04:05:52;18.30;;;14.07;;
56114;SDS011;41988;53.020;6.576;2023-08-06T04:08:36;20.58;;;13.55;;
56114;SDS011;41988;53.020;6.576;2023-08-06T04:11:21;20.42;;;13.45;;
56114;SDS011;41988;53.020;6.576;2023-08-06T04:14:06;25.40;;;13.20;;
56114;SDS011;41988;53.020;6.576;2023-08-06T04:16:50;21.52;;;14.55;;
56114;SDS011;41988;53.020;6.576;2023-08-06T04:19:35;16.63;;;13.07;;
56114;SDS011;41988;53.020;6.576;2023-08-06T04:22:20;20.40;;;13.88;;
56114;SDS011;41988;53.020;6.576;2023-08-06T04:25:05;22.35;;;12.85;;
56114;SDS011;41988;53.020;6.576;2023-08-06T04:27:49;29.40;;;14.63;;
56114;SDS011;41988;53.020;6.576;2023-08-06T04:30:34;25.85;;;14.73;;
56114;SDS011;41988;53.020;6.576;2023-08-06T04:33:19;18.90;;;14.00;;
56114;SDS011;41988;53.020;6.576;2023-08-06T04:36:04;27.33;;;14.90;;
56114;SDS011;41988;53.020;6.576;2023-08-06T04:38:48;35.42;;;15.88;;
56114;SDS011;41988;53.020;6.576;2023-08-06T04:41:33;25.70;;;15.82;;
56114;SDS011;41988;53.020;6.576;2023-08-06T04:44:17;23.40;;;16.38;;
56114;SDS011;41988;53.020;6.576;2023-08-06T04:47:02;25.83;;;15.18;;
56114;SDS011;41988;53.020;6.576;2023-08-06T04:49:47;28.05;;;16.73;;
56114;SDS011;41988;53.020;6.576;2023-08-06T04:52:31;29.15;;;16.20;;
56114;SDS011;41988;53.020;6.576;2023-08-06T04:55:16;31.90;;;16.67;;
56114;SDS011;41988;53.020;6.576;2023-08-06T04:58:00;37.58;;;17.83;;
56114;SDS011;41988;53.020;6.576;2023-08-06T05:00:45;34.00;;;17.00;;
56114;SDS011;41988;53.020;6.576;2023-08-06T05:03:29;32.92;;;19.58;;
56114;SDS011;41988;53.020;6.576;2023-08-06T05:06:14;28.25;;;18.65;;
56114;SDS011;41988;53.020;6.576;2023-08-06T05:08:58;30.70;;;19.38;;
56114;SDS011;41988;53.020;6.576;2023-08-06T05:11:43;30.52;;;18.05;;
56114;SDS011;41988;53.020;6.576;2023-08-06T05:14:27;28.63;;;17.40;;
56114;SDS011;41988;53.020;6.576;2023-08-06T05:17:12;30.88;;;18.13;;
56114;SDS011;41988;53.020;6.576;2023-08-06T05:19:56;38.83;;;19.10;;
56114;SDS011;41988;53.020;6.576;2023-08-06T05:22:41;30.30;;;18.05;;
56114;SDS011;41988;53.020;6.576;2023-08-06T05:25:25;27.20;;;17.67;;
56114;SDS011;41988;53.020;6.576;2023-08-06T05:28:10;31.23;;;17.67;;
56114;SDS011;41988;53.020;6.576;2023-08-06T05:30:55;34.58;;;17.85;;
56114;SDS011;41988;53.020;6.576;2023-08-06T05:33:39;25.90;;;18.40;;
56114;SDS011;41988;53.020;6.576;2023-08-06T05:36:24;26.02;;;17.38;;
56114;SDS011;41988;53.020;6.576;2023-08-06T05:39:08;26.00;;;17.45;;
56114;SDS011;41988;53.020;6.576;2023-08-06T05:41:53;31.88;;;17.35;;
56114;SDS011;41988;53.020;6.576;2023-08-06T05:44:39;26.80;;;16.80;;
56114;SDS011;41988;53.020;6.576;2023-08-06T05:47:23;25.55;;;16.80;;
56114;SDS011;41988;53.020;6.576;2023-08-06T05:50:07;29.38;;;18.25;;
56114;SDS011;41988;53.020;6.576;2023-08-06T05:52:52;30.50;;;19.10;;
56114;SDS011;41988;53.020;6.576;2023-08-06T05:55:38;30.70;;;18.70;;
56114;SDS011;41988;53.020;6.576;2023-08-06T05:58:22;30.25;;;18.30;;
56114;SDS011;41988;53.020;6.576;2023-08-06T06:01:09;27.70;;;18.25;;
56114;SDS011;41988;53.020;6.576;2023-08-06T06:03:54;25.83;;;17.23;;
56114;SDS011;41988;53.020;6.576;2023-08-06T06:06:38;25.38;;;17.70;;
56114;SDS011;41988;53.020;6.576;2023-08-06T06:09:25;27.98;;;17.83;;
56114;SDS011;41988;53.020;6.576;2023-08-06T06:12:10;25.77;;;17.15;;
56114;SDS011;41988;53.020;6.576;2023-08-06T06:14:54;27.73;;;18.25;;
56114;SDS011;41988;53.020;6.576;2023-08-06T06:17:39;26.08;;;17.90;;
56114;SDS011;41988;53.020;6.576;2023-08-06T06:20:23;25.30;;;16.75;;
56114;SDS011;41988;53.020;6.576;2023-08-06T06:23:08;27.13;;;17.77;;
56114;SDS011;41988;53.020;6.576;2023-08-06T06:25:52;25.58;;;16.02;;
56114;SDS011;41988;53.020;6.576;2023-08-06T06:28:37;22.08;;;17.08;;
56114;SDS011;41988;53.020;6.576;2023-08-06T06:31:21;28.50;;;18.08;;
56114;SDS011;41988;53.020;6.576;2023-08-06T06:34:06;27.58;;;17.40;;
56114;SDS011;41988;53.020;6.576;2023-08-06T06:36:51;25.60;;;16.55;;
56114;SDS011;41988;53.020;6.576;2023-08-06T06:39:36;24.90;;;18.63;;
56114;SDS011;41988;53.020;6.576;2023-08-06T06:42:20;24.70;;;17.45;;
56114;SDS011;41988;53.020;6.576;2023-08-06T06:45:06;30.88;;;17.92;;
56114;SDS011;41988;53.020;6.576;2023-08-06T06:47:51;25.92;;;17.75;;
56114;SDS011;41988;53.020;6.576;2023-08-06T06:50:36;25.55;;;17.88;;
56114;SDS011;41988;53.020;6.576;2023-08-06T06:53:23;23.38;;;17.38;;
56114;SDS011;41988;53.020;6.576;2023-08-06T06:56:14;31.05;;;18.52;;
56114;SDS011;41988;53.020;6.576;2023-08-06T06:58:59;29.98;;;18.10;;
56114;SDS011;41988;53.020;6.576;2023-08-06T07:01:43;24.83;;;19.17;;
56114;SDS011;41988;53.020;6.576;2023-08-06T07:04:27;24.10;;;17.77;;
56114;SDS011;41988;53.020;6.576;2023-08-06T07:07:12;28.08;;;17.60;;
56114;SDS011;41988;53.020;6.576;2023-08-06T07:09:57;27.05;;;16.80;;
56114;SDS011;41988;53.020;6.576;2023-08-06T07:12:41;26.35;;;17.17;;
56114;SDS011;41988;53.020;6.576;2023-08-06T07:15:26;22.70;;;16.13;;
56114;SDS011;41988;53.020;6.576;2023-08-06T07:18:10;20.00;;;15.18;;
56114;SDS011;41988;53.020;6.576;2023-08-06T07:20:55;20.35;;;15.50;;
56114;SDS011;41988;53.020;6.576;2023-08-06T07:23:40;19.73;;;16.05;;
56114;SDS011;41988;53.020;6.576;2023-08-06T07:26:24;19.77;;;14.55;;
56114;SDS011;41988;53.020;6.576;2023-08-06T07:29:09;20.50;;;14.98;;
56114;SDS011;41988;53.020;6.576;2023-08-06T07:31:54;16.25;;;13.45;;
56114;SDS011;41988;53.020;6.576;2023-08-06T07:34:39;19.45;;;12.90;;
56114;SDS011;41988;53.020;6.576;2023-08-06T07:37:23;15.35;;;12.98;;
56114;SDS011;41988;53.020;6.576;2023-08-06T07:40:08;15.38;;;13.27;;
56114;SDS011;41988;53.020;6.576;2023-08-06T07:42:53;13.95;;;11.88;;
56114;SDS011;41988;53.020;6.576;2023-08-06T07:45:37;16.77;;;12.65;;
56114;SDS011;41988;53.020;6.576;2023-08-06T07:48:22;14.82;;;11.82;;
56114;SDS011;41988;53.020;6.576;2023-08-06T07:51:07;13.40;;;11.93;;
56114;SDS011;41988;53.020;6.576;2023-08-06T07:53:51;12.57;;;10.65;;
56114;SDS011;41988;53.020;6.576;2023-08-06T07:56:36;12.55;;;10.15;;
56114;SDS011;41988;53.020;6.576;2023-08-06T07:59:20;10.98;;;9.43;;
56114;SDS011;41988;53.020;6.576;2023-08-06T08:02:05;10.80;;;9.70;;
56114;SDS011;41988;53.020;6.576;2023-08-06T08:04:50;13.18;;;10.63;;
56114;SDS011;41988;53.020;6.576;2023-08-06T08:07:35;13.60;;;10.48;;
56114;SDS011;41988;53.020;6.576;2023-08-06T08:10:19;13.73;;;9.57;;
56114;SDS011;41988;53.020;6.576;2023-08-06T08:13:04;13.05;;;10.25;;
56114;SDS011;41988;53.020;6.576;2023-08-06T08:15:49;11.80;;;9.35;;
56114;SDS011;41988;53.020;6.576;2023-08-06T08:18:34;11.15;;;10.00;;
56114;SDS011;41988;53.020;6.576;2023-08-06T08:21:18;10.13;;;9.05;;
56114;SDS011;41988;53.020;6.576;2023-08-06T08:24:03;12.27;;;10.23;;
56114;SDS011;41988;53.020;6.576;2023-08-06T08:26:48;13.70;;;9.70;;
56114;SDS011;41988;53.020;6.576;2023-08-06T08:29:33;12.75;;;10.00;;
56114;SDS011;41988;53.020;6.576;2023-08-06T08:32:17;12.38;;;10.30;;
56114;SDS011;41988;53.020;6.576;2023-08-06T08:35:02;13.48;;;9.13;;
56114;SDS011;41988;53.020;6.576;2023-08-06T08:37:47;9.82;;;8.80;;
56114;SDS011;41988;53.020;6.576;2023-08-06T08:40:32;13.32;;;9.10;;
56114;SDS011;41988;53.020;6.576;2023-08-06T08:43:17;10.38;;;8.95;;
56114;SDS011;41988;53.020;6.576;2023-08-06T08:46:02;12.73;;;9.52;;
56114;SDS011;41988;53.020;6.576;2023-08-06T08:48:48;13.35;;;8.90;;
56114;SDS011;41988;53.020;6.576;2023-08-06T08:51:33;10.38;;;8.98;;
56114;SDS011;41988;53.020;6.576;2023-08-06T08:54:18;10.98;;;8.75;;
56114;SDS011;41988;53.020;6.576;2023-08-06T08:57:04;10.38;;;7.72;;
56114;SDS011;41988;53.020;6.576;2023-08-06T08:59:49;10.20;;;7.47;;
56114;SDS011;41988;53.020;6.576;2023-08-06T09:02:34;7.57;;;6.05;;
56114;SDS011;41988;53.020;6.576;2023-08-06T09:05:21;7.38;;;5.60;;
56114;SDS011;41988;53.020;6.576;2023-08-06T09:08:07;8.15;;;6.40;;
56114;SDS011;41988;53.020;6.576;2023-08-06T09:10:54;6.57;;;5.70;;
56114;SDS011;41988;53.020;6.576;2023-08-06T09:13:41;8.13;;;6.00;;
56114;SDS011;41988;53.020;6.576;2023-08-06T09:16:26;8.20;;;5.82;;
56114;SDS011;41988;53.020;6.576;2023-08-06T09:19:11;5.70;;;5.10;;
56114;SDS011;41988;53.020;6.576;2023-08-06T09:21:56;9.15;;;5.15;;
56114;SDS011;41988;53.020;6.576;2023-08-06T09:24:41;6.18;;;4.75;;
56114;SDS011;41988;53.020;6.576;2023-08-06T09:27:26;7.75;;;4.38;;
56114;SDS011;41988;53.020;6.576;2023-08-06T09:30:11;6.47;;;3.80;;
56114;SDS011;41988;53.020;6.576;2023-08-06T09:32:56;6.32;;;3.53;;
56114;SDS011;41988;53.020;6.576;2023-08-06T09:35:40;5.20;;;3.53;;
56114;SDS011;41988;53.020;6.576;2023-08-06T09:38:25;5.32;;;3.72;;
56114;SDS011;41988;53.020;6.576;2023-08-06T09:41:15;5.43;;;3.63;;
56114;SDS011;41988;53.020;6.576;2023-08-06T09:44:18;4.90;;;3.35;;
56114;SDS011;41988;53.020;6.576;2023-08-06T09:47:03;4.55;;;3.15;;
56114;SDS011;41988;53.020;6.576;2023-08-06T09:49:48;3.50;;;2.80;;
56114;SDS011;41988;53.020;6.576;2023-08-06T09:52:35;4.28;;;2.72;;
56114;SDS011;41988;53.020;6.576;2023-08-06T09:55:20;4.25;;;2.78;;
56114;SDS011;41988;53.020;6.576;2023-08-06T09:58:05;5.82;;;2.92;;
56114;SDS011;41988;53.020;6.576;2023-08-06T10:00:50;4.13;;;2.88;;
56114;SDS011;41988;53.020;6.576;2023-08-06T10:03:35;3.30;;;2.40;;
56114;SDS011;41988;53.020;6.576;2023-08-06T10:06:21;3.58;;;2.33;;
56114;SDS011;41988;53.020;6.576;2023-08-06T10:09:06;3.65;;;2.53;;
56114;SDS011;41988;53.020;6.576;2023-08-06T10:11:52;4.13;;;2.55;;
56114;SDS011;41988;53.020;6.576;2023-08-06T10:14:38;5.55;;;2.35;;
56114;SDS011;41988;53.020;6.576;2023-08-06T10:17:23;4.95;;;2.75;;
56114;SDS011;41988;53.020;6.576;2023-08-06T10:20:08;6.07;;;2.53;;
56114;SDS011;41988;53.020;6.576;2023-08-06T10:22:59;4.75;;;2.45;;
56114;SDS011;41988;53.020;6.576;2023-08-06T10:25:45;4.30;;;2.47;;
56114;SDS011;41988;53.020;6.576;2023-08-06T10:28:39;4.68;;;2.40;;
56114;SDS011;41988;53.020;6.576;2023-08-06T10:34:52;4.32;;;2.45;;
56114;SDS011;41988;53.020;6.576;2023-08-06T10:37:38;3.65;;;2.20;;
56114;SDS011;41988;53.020;6.576;2023-08-06T10:40:22;4.70;;;2.60;;
56114;SDS011;41988;53.020;6.576;2023-08-06T10:43:08;4.65;;;2.63;;
56114;SDS011;41988;53.020;6.576;2023-08-06T10:46:09;3.75;;;2.28;;
56114;SDS011;41988;53.020;6.576;2023-08-06T10:48:54;3.75;;;2.28;;
56114;SDS011;41988;53.020;6.576;2023-08-06T10:51:39;4.22;;;2.40;;
56114;SDS011;41988;53.020;6.576;2023-08-06T10:54:24;3.75;;;2.65;;
56114;SDS011;41988;53.020;6.576;2023-08-06T10:57:09;5.20;;;2.60;;
56114;SDS011;41988;53.020;6.576;2023-08-06T10:59:54;3.17;;;2.40;;
56114;SDS011;41988;53.020;6.576;2023-08-06T11:02:39;3.78;;;2.58;;
56114;SDS011;41988;53.020;6.576;2023-08-06T11:05:23;4.97;;;2.05;;
56114;SDS011;41988;53.020;6.576;2023-08-06T11:08:08;3.03;;;2.22;;
56114;SDS011;41988;53.020;6.576;2023-08-06T11:10:52;3.20;;;2.28;;
56114;SDS011;41988;53.020;6.576;2023-08-06T11:13:37;6.07;;;2.38;;
56114;SDS011;41988;53.020;6.576;2023-08-06T11:16:22;4.72;;;2.25;;
56114;SDS011;41988;53.020;6.576;2023-08-06T11:19:10;3.38;;;2.13;;
56114;SDS011;41988;53.020;6.576;2023-08-06T11:21:55;3.38;;;2.38;;
56114;SDS011;41988;53.020;6.576;2023-08-06T11:24:40;3.03;;;2.10;;
56114;SDS011;41988;53.020;6.576;2023-08-06T11:27:25;3.58;;;2.03;;
56114;SDS011;41988;53.020;6.576;2023-08-06T11:30:10;3.35;;;2.20;;
56114;SDS011;41988;53.020;6.576;2023-08-06T11:32:56;3.08;;;2.13;;
56114;SDS011;41988;53.020;6.576;2023-08-06T11:35:40;2.78;;;1.88;;
56114;SDS011;41988;53.020;6.576;2023-08-06T11:38:25;5.85;;;2.20;;
56114;SDS011;41988;53.020;6.576;2023-08-06T11:41:11;3.42;;;2.15;;
56114;SDS011;41988;53.020;6.576;2023-08-06T11:43:56;2.40;;;1.85;;
56114;SDS011;41988;53.020;6.576;2023-08-06T11:46:53;5.05;;;2.47;;
56114;SDS011;41988;53.020;6.576;2023-08-06T11:52:30;3.03;;;2.00;;
56114;SDS011;41988;53.020;6.576;2023-08-06T11:55:15;4.60;;;2.33;;
56114;SDS011;41988;53.020;6.576;2023-08-06T11:58:02;3.28;;;1.90;;
56114;SDS011;41988;53.020;6.576;2023-08-06T12:00:50;3.47;;;2.10;;
56114;SDS011;41988;53.020;6.576;2023-08-06T12:03:41;2.70;;;2.03;;
56114;SDS011;41988;53.020;6.576;2023-08-06T12:06:29;3.15;;;2.10;;
56114;SDS011;41988;53.020;6.576;2023-08-06T12:09:13;2.63;;;1.95;;
56114;SDS011;41988;53.020;6.576;2023-08-06T12:11:58;4.95;;;2.20;;
56114;SDS011;41988;53.020;6.576;2023-08-06T12:14:43;3.58;;;2.40;;
56114;SDS011;41988;53.020;6.576;2023-08-06T12:17:27;4.43;;;1.95;;
56114;SDS011;41988;53.020;6.576;2023-08-06T12:20:12;3.63;;;2.20;;
56114;SDS011;41988;53.020;6.576;2023-08-06T12:22:57;3.67;;;2.13;;
56114;SDS011;41988;53.020;6.576;2023-08-06T12:25:41;6.25;;;2.65;;
56114;SDS011;41988;53.020;6.576;2023-08-06T12:28:28;2.95;;;2.08;;
56114;SDS011;41988;53.020;6.576;2023-08-06T12:31:12;2.60;;;2.00;;
56114;SDS011;41988;53.020;6.576;2023-08-06T12:33:57;3.05;;;2.53;;
56114;SDS011;41988;53.020;6.576;2023-08-06T12:36:41;3.95;;;2.20;;
56114;SDS011;41988;53.020;6.576;2023-08-06T12:39:26;4.00;;;2.30;;
56114;SDS011;41988;53.020;6.576;2023-08-06T12:42:12;3.75;;;2.30;;
56114;SDS011;41988;53.020;6.576;2023-08-06T12:44:56;3.17;;;2.30;;
56114;SDS011;41988;53.020;6.576;2023-08-06T12:47:41;5.32;;;2.60;;
56114;SDS011;41988;53.020;6.576;2023-08-06T12:50:26;4.47;;;2.35;;
56114;SDS011;41988;53.020;6.576;2023-08-06T12:53:10;3.88;;;2.47;;
56114;SDS011;41988;53.020;6.576;2023-08-06T12:55:55;3.35;;;2.45;;
56114;SDS011;41988;53.020;6.576;2023-08-06T12:58:39;6.57;;;3.00;;
56114;SDS011;41988;53.020;6.576;2023-08-06T13:01:25;4.57;;;2.28;;
56114;SDS011;41988;53.020;6.576;2023-08-06T13:04:10;4.22;;;2.60;;
56114;SDS011;41988;53.020;6.576;2023-08-06T13:06:54;5.28;;;2.60;;
56114;SDS011;41988;53.020;6.576;2023-08-06T13:09:39;2.80;;;2.00;;
56114;SDS011;41988;53.020;6.576;2023-08-06T13:12:24;4.43;;;2.60;;
56114;SDS011;41988;53.020;6.576;2023-08-06T13:15:08;3.67;;;2.35;;
56114;SDS011;41988;53.020;6.576;2023-08-06T13:17:53;3.75;;;2.50;;
56114;SDS011;41988;53.020;6.576;2023-08-06T13:20:38;3.97;;;2.72;;
56114;SDS011;41988;53.020;6.576;2023-08-06T13:23:24;4.47;;;2.55;;
56114;SDS011;41988;53.020;6.576;2023-08-06T13:26:08;4.75;;;2.28;;
56114;SDS011;41988;53.020;6.576;2023-08-06T13:28:53;3.65;;;2.28;;
56114;SDS011;41988;53.020;6.576;2023-08-06T13:31:38;3.13;;;2.42;;
56114;SDS011;41988;53.020;6.576;2023-08-06T13:34:23;3.55;;;2.63;;
56114;SDS011;41988;53.020;6.576;2023-08-06T13:37:07;4.15;;;2.33;;
56114;SDS011;41988;53.020;6.576;2023-08-06T13:39:52;4.07;;;2.22;;
56114;SDS011;41988;53.020;6.576;2023-08-06T13:42:36;3.88;;;2.25;;
56114;SDS011;41988;53.020;6.576;2023-08-06T13:45:21;3.28;;;2.10;;
56114;SDS011;41988;53.020;6.576;2023-08-06T13:48:06;5.25;;;2.40;;
56114;SDS011;41988;53.020;6.576;2023-08-06T13:50:52;4.10;;;2.35;;
56114;SDS011;41988;53.020;6.576;2023-08-06T13:53:40;4.25;;;2.50;;
56114;SDS011;41988;53.020;6.576;2023-08-06T13:56:24;3.80;;;2.25;;
56114;SDS011;41988;53.020;6.576;2023-08-06T13:59:09;5.20;;;2.78;;
56114;SDS011;41988;53.020;6.576;2023-08-06T14:01:56;3.80;;;2.40;;
56114;SDS011;41988;53.020;6.576;2023-08-06T14:04:43;3.45;;;2.33;;
56114;SDS011;41988;53.020;6.576;2023-08-06T14:07:28;6.55;;;2.80;;
56114;SDS011;41988;53.020;6.576;2023-08-06T14:10:12;6.00;;;2.70;;
56114;SDS011;41988;53.020;6.576;2023-08-06T14:12:57;4.05;;;2.80;;
56114;SDS011;41988;53.020;6.576;2023-08-06T14:15:41;4.35;;;2.10;;
56114;SDS011;41988;53.020;6.576;2023-08-06T14:18:30;3.97;;;2.42;;
56114;SDS011;41988;53.020;6.576;2023-08-06T14:21:14;4.10;;;2.45;;
56114;SDS011;41988;53.020;6.576;2023-08-06T14:24:00;12.77;;;2.78;;
56114;SDS011;41988;53.020;6.576;2023-08-06T14:26:44;5.78;;;2.65;;
56114;SDS011;41988;53.020;6.576;2023-08-06T14:29:29;4.93;;;2.70;;
56114;SDS011;41988;53.020;6.576;2023-08-06T14:32:13;8.32;;;2.63;;
56114;SDS011;41988;53.020;6.576;2023-08-06T14:35:01;6.57;;;3.42;;
56114;SDS011;41988;53.020;6.576;2023-08-06T14:37:46;12.43;;;3.85;;
56114;SDS011;41988;53.020;6.576;2023-08-06T14:40:30;5.35;;;2.95;;
56114;SDS011;41988;53.020;6.576;2023-08-06T14:43:18;8.88;;;3.50;;
56114;SDS011;41988;53.020;6.576;2023-08-06T14:46:03;6.47;;;2.60;;
56114;SDS011;41988;53.020;6.576;2023-08-06T14:48:47;2.88;;;2.17;;
56114;SDS011;41988;53.020;6.576;2023-08-06T14:51:32;5.88;;;2.40;;
56114;SDS011;41988;53.020;6.576;2023-08-06T14:54:16;5.13;;;2.50;;
56114;SDS011;41988;53.020;6.576;2023-08-06T14:57:01;6.50;;;2.53;;
56114;SDS011;41988;53.020;6.576;2023-08-06T14:59:46;5.70;;;2.30;;
56114;SDS011;41988;53.020;6.576;2023-08-06T15:02:30;7.95;;;2.20;;
56114;SDS011;41988;53.020;6.576;2023-08-06T15:05:15;6.93;;;2.67;;
56114;SDS011;41988;53.020;6.576;2023-08-06T15:08:00;5.07;;;2.08;;
56114;SDS011;41988;53.020;6.576;2023-08-06T15:10:49;6.72;;;2.85;;
56114;SDS011;41988;53.020;6.576;2023-08-06T15:13:35;2.65;;;2.20;;
56114;SDS011;41988;53.020;6.576;2023-08-06T15:16:20;2.97;;;2.30;;
56114;SDS011;41988;53.020;6.576;2023-08-06T15:19:04;2.60;;;2.20;;
56114;SDS011;41988;53.020;6.576;2023-08-06T15:21:49;4.85;;;2.70;;
56114;SDS011;41988;53.020;6.576;2023-08-06T15:24:33;3.55;;;2.60;;
56114;SDS011;41988;53.020;6.576;2023-08-06T15:27:20;3.58;;;2.40;;
56114;SDS011;41988;53.020;6.576;2023-08-06T15:30:05;3.67;;;2.35;;
56114;SDS011;41988;53.020;6.576;2023-08-06T15:32:51;5.68;;;2.75;;
56114;SDS011;41988;53.020;6.576;2023-08-06T15:35:35;3.35;;;2.53;;
56114;SDS011;41988;53.020;6.576;2023-08-06T15:38:20;5.57;;;2.40;;
56114;SDS011;41988;53.020;6.576;2023-08-06T15:41:04;3.65;;;2.60;;
56114;SDS011;41988;53.020;6.576;2023-08-06T15:43:49;2.95;;;2.22;;
56114;SDS011;41988;53.020;6.576;2023-08-06T15:46:33;3.53;;;2.40;;
56114;SDS011;41988;53.020;6.576;2023-08-06T15:49:20;3.90;;;2.22;;
56114;SDS011;41988;53.020;6.576;2023-08-06T15:52:04;2.50;;;2.00;;
56114;SDS011;41988;53.020;6.576;2023-08-06T15:54:49;4.32;;;2.30;;
56114;SDS011;41988;53.020;6.576;2023-08-06T15:57:34;4.20;;;2.00;;
56114;SDS011;41988;53.020;6.576;2023-08-06T16:00:18;3.13;;;2.50;;
56114;SDS011;41988;53.020;6.576;2023-08-06T16:03:03;3.78;;;2.40;;
56114;SDS011;41988;53.020;6.576;2023-08-06T16:05:48;2.78;;;2.08;;
56114;SDS011;41988;53.020;6.576;2023-08-06T16:08:33;4.45;;;2.17;;
56114;SDS011;41988;53.020;6.576;2023-08-06T16:11:18;3.90;;;2.42;;
56114;SDS011;41988;53.020;6.576;2023-08-06T16:14:03;3.47;;;2.30;;
56114;SDS011;41988;53.020;6.576;2023-08-06T16:16:48;2.92;;;2.20;;
56114;SDS011;41988;53.020;6.576;2023-08-06T16:19:32;3.60;;;2.50;;
56114;SDS011;41988;53.020;6.576;2023-08-06T16:22:17;2.85;;;2.30;;
56114;SDS011;41988;53.020;6.576;2023-08-06T16:25:02;3.95;;;2.10;;
56114;SDS011;41988;53.020;6.576;2023-08-06T16:27:47;3.90;;;2.50;;
56114;SDS011;41988;53.020;6.576;2023-08-06T16:30:32;3.15;;;2.35;;
56114;SDS011;41988;53.020;6.576;2023-08-06T16:33:16;3.08;;;2.40;;